sensor_id;sensor_type;location;lat;lon;timestamp;P1;durP1;ratioP1;P2;durP2;ratioP2
14754;SDS011;7469;50.906;6.952;2023-09-07T00:04:06;5.27;;;4.00;;
14754;SDS011;7469;50.906;6.952;2023-09-07T00:06:34;6.77;;;4.03;;
14754;SDS011;7469;50.906;6.952;2023-09-07T00:09:02;6.30;;;4.23;;
14754;SDS011;7469;50.906;6.952;2023-09-07T00:11:32;5.20;;;4.60;;
14754;SDS011;7469;50.906;6.952;2023-09-07T00:14:00;7.77;;;4.10;;
14754;SDS011;7469;50.906;6.952;2023-09-07T00:16:30;11.27;;;4.40;;
14754;SDS011;7469;50.906;6.952;2023-09-07T00:19:02;7.87;;;4.80;;
14754;SDS011;7469;50.906;6.952;2023-09-07T00:21:30;4.73;;;4.23;;
14754;SDS011;7469;50.906;6.952;2023-09-07T00:23:58;5.47;;;4.33;;
14754;SDS011;7469;50.906;6.952;2023-09-07T00:26:30;5.83;;;4.67;;
14754;SDS011;7469;50.906;6.952;2023-09-07T00:28:58;8.33;;;4.50;;
14754;SDS011;7469;50.906;6.952;2023-09-07T00:31:26;5.77;;;4.23;;
14754;SDS011;7469;50.906;6.952;2023-09-07T00:33:54;7.93;;;4.40;;
14754;SDS011;7469;50.906;6.952;2023-09-07T00:36:23;5.00;;;4.20;;
14754;SDS011;7469;50.906;6.952;2023-09-07T00:38:51;7.53;;;4.40;;
14754;SDS011;7469;50.906;6.952;2023-09-07T00:41:19;6.93;;;4.73;;
14754;SDS011;7469;50.906;6.952;2023-09-07T00:43:47;5.00;;;4.10;;
14754;SDS011;7469;50.906;6.952;2023-09-07T00:46:15;5.43;;;4.47;;
14754;SDS011;7469;50.906;6.952;2023-09-07T00:48:43;5.13;;;4.10;;
14754;SDS011;7469;50.906;6.952;2023-09-07T00:51:11;5.57;;;4.27;;
14754;SDS011;7469;50.906;6.952;2023-09-07T00:53:40;8.37;;;4.77;;
14754;SDS011;7469;50.906;6.952;2023-09-07T00:56:09;5.97;;;4.23;;
14754;SDS011;7469;50.906;6.952;2023-09-07T00:58:38;9.03;;;4.47;;
14754;SDS011;7469;50.906;6.952;2023-09-07T01:01:07;6.13;;;4.43;;
14754;SDS011;7469;50.906;6.952;2023-09-07T01:03:35;5.40;;;4.80;;
14754;SDS011;7469;50.906;6.952;2023-09-07T01:06:04;7.40;;;4.20;;
14754;SDS011;7469;50.906;6.952;2023-09-07T01:08:42;6.70;;;4.70;;
14754;SDS011;7469;50.906;6.952;2023-09-07T01:11:13;5.73;;;4.40;;
14754;SDS011;7469;50.906;6.952;2023-09-07T01:13:41;4.90;;;4.33;;
14754;SDS011;7469;50.906;6.952;2023-09-07T01:16:10;9.37;;;4.80;;
14754;SDS011;7469;50.906;6.952;2023-09-07T01:18:39;7.23;;;4.20;;
14754;SDS011;7469;50.906;6.952;2023-09-07T01:21:09;5.63;;;4.57;;
14754;SDS011;7469;50.906;6.952;2023-09-07T01:23:41;5.37;;;4.60;;
14754;SDS011;7469;50.906;6.952;2023-09-07T01:26:10;5.43;;;4.60;;
14754;SDS011;7469;50.906;6.952;2023-09-07T01:28:38;4.97;;;4.37;;
14754;SDS011;7469;50.906;6.952;2023-09-07T01:31:08;5.47;;;4.50;;
14754;SDS011;7469;50.906;6.952;2023-09-07T01:33:36;5.60;;;4.43;;
14754;SDS011;7469;50.906;6.952;2023-09-07T01:36:04;9.30;;;5.23;;
14754;SDS011;7469;50.906;6.952;2023-09-07T01:38:35;8.37;;;4.70;;
14754;SDS011;7469;50.906;6.952;2023-09-07T01:41:04;4.80;;;4.30;;
14754;SDS011;7469;50.906;6.952;2023-09-07T01:43:32;5.80;;;4.20;;
14754;SDS011;7469;50.906;6.952;2023-09-07T01:46:00;6.30;;;4.10;;
14754;SDS011;7469;50.906;6.952;2023-09-07T01:48:28;5.37;;;4.33;;
14754;SDS011;7469;50.906;6.952;2023-09-07T01:50:58;4.93;;;4.17;;
14754;SDS011;7469;50.906;6.952;2023-09-07T01:53:28;6.03;;;4.30;;
14754;SDS011;7469;50.906;6.952;2023-09-07T01:55:56;5.27;;;3.83;;
14754;SDS011;7469;50.906;6.952;2023-09-07T01:58:27;6.70;;;5.07;;
14754;SDS011;7469;50.906;6.952;2023-09-07T02:00:56;6.97;;;4.70;;
14754;SDS011;7469;50.906;6.952;2023-09-07T02:03:25;6.17;;;4.50;;
14754;SDS011;7469;50.906;6.952;2023-09-07T02:05:53;7.07;;;4.43;;
14754;SDS011;7469;50.906;6.952;2023-09-07T02:08:21;7.97;;;4.40;;
14754;SDS011;7469;50.906;6.952;2023-09-07T02:10:49;4.80;;;4.30;;
14754;SDS011;7469;50.906;6.952;2023-09-07T02:13:17;7.53;;;4.10;;
14754;SDS011;7469;50.906;6.952;2023-09-07T02:15:46;6.93;;;4.43;;
14754;SDS011;7469;50.906;6.952;2023-09-07T02:18:14;4.50;;;3.97;;
14754;SDS011;7469;50.906;6.952;2023-09-07T02:20:44;4.90;;;4.27;;
14754;SDS011;7469;50.906;6.952;2023-09-07T02:23:12;6.13;;;4.10;;
14754;SDS011;7469;50.906;6.952;2023-09-07T02:25:42;7.17;;;3.93;;
14754;SDS011;7469;50.906;6.952;2023-09-07T02:28:10;5.80;;;4.33;;
14754;SDS011;7469;50.906;6.952;2023-09-07T02:30:39;4.97;;;4.20;;
14754;SDS011;7469;50.906;6.952;2023-09-07T02:33:09;4.93;;;4.43;;
14754;SDS011;7469;50.906;6.952;2023-09-07T02:35:37;7.83;;;4.93;;
14754;SDS011;7469;50.906;6.952;2023-09-07T02:38:05;5.73;;;4.23;;
14754;SDS011;7469;50.906;6.952;2023-09-07T02:40:33;5.20;;;4.00;;
14754;SDS011;7469;50.906;6.952;2023-09-07T02:43:07;9.13;;;4.40;;
14754;SDS011;7469;50.906;6.952;2023-09-07T02:45:35;5.30;;;4.67;;
14754;SDS011;7469;50.906;6.952;2023-09-07T02:48:04;7.30;;;4.30;;
14754;SDS011;7469;50.906;6.952;2023-09-07T02:50:34;5.67;;;4.60;;
14754;SDS011;7469;50.906;6.952;2023-09-07T02:53:02;7.73;;;4.13;;
14754;SDS011;7469;50.906;6.952;2023-09-07T02:55:31;7.30;;;4.13;;
14754;SDS011;7469;50.906;6.952;2023-09-07T02:57:59;5.70;;;4.23;;
14754;SDS011;7469;50.906;6.952;2023-09-07T03:00:26;5.87;;;4.50;;
14754;SDS011;7469;50.906;6.952;2023-09-07T03:02:55;7.17;;;4.83;;
14754;SDS011;7469;50.906;6.952;2023-09-07T03:05:23;4.43;;;4.03;;
14754;SDS011;7469;50.906;6.952;2023-09-07T03:07:55;4.97;;;4.27;;
14754;SDS011;7469;50.906;6.952;2023-09-07T03:10:23;6.33;;;4.33;;
14754;SDS011;7469;50.906;6.952;2023-09-07T03:12:51;6.03;;;4.03;;
14754;SDS011;7469;50.906;6.952;2023-09-07T03:15:21;6.30;;;4.40;;
14754;SDS011;7469;50.906;6.952;2023-09-07T03:17:49;8.17;;;3.97;;
14754;SDS011;7469;50.906;6.952;2023-09-07T03:20:17;5.47;;;4.40;;
14754;SDS011;7469;50.906;6.952;2023-09-07T03:22:45;5.30;;;3.87;;
14754;SDS011;7469;50.906;6.952;2023-09-07T03:25:15;5.17;;;4.13;;
14754;SDS011;7469;50.906;6.952;2023-09-07T03:27:43;5.33;;;4.20;;
14754;SDS011;7469;50.906;6.952;2023-09-07T03:30:11;8.10;;;4.80;;
14754;SDS011;7469;50.906;6.952;2023-09-07T03:32:39;7.77;;;4.53;;
14754;SDS011;7469;50.906;6.952;2023-09-07T03:35:07;7.60;;;4.60;;
14754;SDS011;7469;50.906;6.952;2023-09-07T03:37:36;4.40;;;4.00;;
14754;SDS011;7469;50.906;6.952;2023-09-07T03:40:05;6.10;;;4.87;;
14754;SDS011;7469;50.906;6.952;2023-09-07T03:42:36;5.57;;;4.37;;
14754;SDS011;7469;50.906;6.952;2023-09-07T03:45:05;5.07;;;4.57;;
14754;SDS011;7469;50.906;6.952;2023-09-07T03:47:34;4.73;;;4.30;;
14754;SDS011;7469;50.906;6.952;2023-09-07T03:50:02;8.97;;;4.20;;
14754;SDS011;7469;50.906;6.952;2023-09-07T03:52:30;6.53;;;4.10;;
14754;SDS011;7469;50.906;6.952;2023-09-07T03:54:59;6.00;;;4.43;;
14754;SDS011;7469;50.906;6.952;2023-09-07T03:57:29;7.73;;;4.43;;
14754;SDS011;7469;50.906;6.952;2023-09-07T03:59:59;5.40;;;4.57;;
14754;SDS011;7469;50.906;6.952;2023-09-07T04:02:27;7.67;;;4.70;;
14754;SDS011;7469;50.906;6.952;2023-09-07T04:04:55;6.27;;;4.60;;
14754;SDS011;7469;50.906;6.952;2023-09-07T04:07:23;7.10;;;4.80;;
14754;SDS011;7469;50.906;6.952;2023-09-07T04:09:54;7.10;;;4.87;;
14754;SDS011;7469;50.906;6.952;2023-09-07T04:12:24;9.67;;;4.77;;
14754;SDS011;7469;50.906;6.952;2023-09-07T04:14:52;8.10;;;4.87;;
14754;SDS011;7469;50.906;6.952;2023-09-07T04:17:21;6.80;;;4.73;;
14754;SDS011;7469;50.906;6.952;2023-09-07T04:19:49;6.80;;;4.60;;
14754;SDS011;7469;50.906;6.952;2023-09-07T04:22:17;8.00;;;4.70;;
14754;SDS011;7469;50.906;6.952;2023-09-07T04:24:47;11.17;;;4.90;;
14754;SDS011;7469;50.906;6.952;2023-09-07T04:27:15;7.43;;;4.03;;
14754;SDS011;7469;50.906;6.952;2023-09-07T04:29:43;8.90;;;4.40;;
14754;SDS011;7469;50.906;6.952;2023-09-07T04:32:11;4.70;;;4.20;;
14754;SDS011;7469;50.906;6.952;2023-09-07T04:34:41;7.30;;;4.90;;
14754;SDS011;7469;50.906;6.952;2023-09-07T04:37:10;8.03;;;4.27;;
14754;SDS011;7469;50.906;6.952;2023-09-07T04:39:38;4.97;;;4.30;;
14754;SDS011;7469;50.906;6.952;2023-09-07T04:42:07;8.17;;;4.50;;
14754;SDS011;7469;50.906;6.952;2023-09-07T04:44:35;5.90;;;4.73;;
14754;SDS011;7469;50.906;6.952;2023-09-07T04:47:05;4.53;;;4.03;;
14754;SDS011;7469;50.906;6.952;2023-09-07T04:49:33;4.90;;;4.40;;
14754;SDS011;7469;50.906;6.952;2023-09-07T04:52:02;6.90;;;4.57;;
14754;SDS011;7469;50.906;6.952;2023-09-07T04:54:31;6.00;;;4.40;;
14754;SDS011;7469;50.906;6.952;2023-09-07T04:56:59;4.97;;;4.47;;
14754;SDS011;7469;50.906;6.952;2023-09-07T04:59:27;8.27;;;4.50;;
14754;SDS011;7469;50.906;6.952;2023-09-07T05:01:58;6.27;;;4.37;;
14754;SDS011;7469;50.906;6.952;2023-09-07T05:04:26;8.30;;;5.10;;
14754;SDS011;7469;50.906;6.952;2023-09-07T05:06:55;9.50;;;4.63;;
14754;SDS011;7469;50.906;6.952;2023-09-07T05:09:28;7.00;;;4.50;;
14754;SDS011;7469;50.906;6.952;2023-09-07T05:11:56;6.33;;;4.57;;
14754;SDS011;7469;50.906;6.952;2023-09-07T05:14:24;5.50;;;5.00;;
14754;SDS011;7469;50.906;6.952;2023-09-07T05:16:53;8.20;;;4.97;;
14754;SDS011;7469;50.906;6.952;2023-09-07T05:19:22;7.83;;;4.53;;
14754;SDS011;7469;50.906;6.952;2023-09-07T05:21:50;5.50;;;4.63;;
14754;SDS011;7469;50.906;6.952;2023-09-07T05:24:18;6.67;;;4.43;;
14754;SDS011;7469;50.906;6.952;2023-09-07T05:26:47;5.33;;;4.10;;
14754;SDS011;7469;50.906;6.952;2023-09-07T05:29:17;8.67;;;4.80;;
14754;SDS011;7469;50.906;6.952;2023-09-07T05:31:46;9.73;;;4.70;;
14754;SDS011;7469;50.906;6.952;2023-09-07T05:34:14;11.40;;;5.33;;
14754;SDS011;7469;50.906;6.952;2023-09-07T05:36:42;8.63;;;5.10;;
14754;SDS011;7469;50.906;6.952;2023-09-07T05:39:10;9.00;;;4.37;;
14754;SDS011;7469;50.906;6.952;2023-09-07T05:41:38;6.87;;;4.17;;
14754;SDS011;7469;50.906;6.952;2023-09-07T05:44:08;8.00;;;5.10;;
14754;SDS011;7469;50.906;6.952;2023-09-07T05:46:36;7.67;;;4.67;;
14754;SDS011;7469;50.906;6.952;2023-09-07T05:49:04;5.53;;;4.70;;
14754;SDS011;7469;50.906;6.952;2023-09-07T05:51:32;6.60;;;4.40;;
14754;SDS011;7469;50.906;6.952;2023-09-07T05:54:00;7.07;;;3.90;;
14754;SDS011;7469;50.906;6.952;2023-09-07T05:56:28;8.53;;;4.57;;
14754;SDS011;7469;50.906;6.952;2023-09-07T05:58:56;6.80;;;4.10;;
14754;SDS011;7469;50.906;6.952;2023-09-07T06:01:25;7.23;;;4.67;;
14754;SDS011;7469;50.906;6.952;2023-09-07T06:03:53;9.17;;;4.93;;
14754;SDS011;7469;50.906;6.952;2023-09-07T06:06:22;5.30;;;4.47;;
14754;SDS011;7469;50.906;6.952;2023-09-07T06:08:50;6.67;;;4.10;;
14754;SDS011;7469;50.906;6.952;2023-09-07T06:11:18;5.47;;;4.33;;
14754;SDS011;7469;50.906;6.952;2023-09-07T06:13:45;10.47;;;4.70;;
14754;SDS011;7469;50.906;6.952;2023-09-07T06:16:15;6.73;;;4.50;;
14754;SDS011;7469;50.906;6.952;2023-09-07T06:18:45;9.30;;;4.60;;
14754;SDS011;7469;50.906;6.952;2023-09-07T06:21:12;5.63;;;4.13;;
14754;SDS011;7469;50.906;6.952;2023-09-07T06:23:40;6.83;;;4.33;;
14754;SDS011;7469;50.906;6.952;2023-09-07T06:26:09;10.20;;;4.67;;
14754;SDS011;7469;50.906;6.952;2023-09-07T06:28:37;9.00;;;4.30;;
14754;SDS011;7469;50.906;6.952;2023-09-07T06:31:05;6.57;;;4.67;;
14754;SDS011;7469;50.906;6.952;2023-09-07T06:33:33;6.30;;;4.20;;
14754;SDS011;7469;50.906;6.952;2023-09-07T06:36:03;7.70;;;4.27;;
14754;SDS011;7469;50.906;6.952;2023-09-07T06:38:31;6.27;;;4.23;;
14754;SDS011;7469;50.906;6.952;2023-09-07T06:40:59;8.03;;;4.50;;
14754;SDS011;7469;50.906;6.952;2023-09-07T06:43:27;6.93;;;4.20;;
14754;SDS011;7469;50.906;6.952;2023-09-07T06:46:02;6.40;;;4.13;;
14754;SDS011;7469;50.906;6.952;2023-09-07T06:48:33;11.17;;;4.50;;
14754;SDS011;7469;50.906;6.952;2023-09-07T06:51:02;8.00;;;4.10;;
14754;SDS011;7469;50.906;6.952;2023-09-07T06:53:31;10.57;;;4.07;;
14754;SDS011;7469;50.906;6.952;2023-09-07T06:56:19;6.70;;;3.57;;
14754;SDS011;7469;50.906;6.952;2023-09-07T06:58:47;4.53;;;3.90;;
14754;SDS011;7469;50.906;6.952;2023-09-07T07:01:15;6.20;;;4.10;;
14754;SDS011;7469;50.906;6.952;2023-09-07T07:03:43;7.17;;;4.00;;
14754;SDS011;7469;50.906;6.952;2023-09-07T07:06:13;7.50;;;3.77;;
14754;SDS011;7469;50.906;6.952;2023-09-07T07:08:41;7.77;;;4.13;;
14754;SDS011;7469;50.906;6.952;2023-09-07T07:11:09;8.10;;;4.10;;
14754;SDS011;7469;50.906;6.952;2023-09-07T07:13:37;7.07;;;3.90;;
14754;SDS011;7469;50.906;6.952;2023-09-07T07:16:05;6.17;;;3.70;;
14754;SDS011;7469;50.906;6.952;2023-09-07T07:18:39;7.47;;;3.93;;
14754;SDS011;7469;50.906;6.952;2023-09-07T07:21:25;5.27;;;3.70;;
14754;SDS011;7469;50.906;6.952;2023-09-07T07:23:53;8.73;;;3.63;;
14754;SDS011;7469;50.906;6.952;2023-09-07T07:26:21;4.53;;;3.93;;
14754;SDS011;7469;50.906;6.952;2023-09-07T07:28:49;11.60;;;4.00;;
14754;SDS011;7469;50.906;6.952;2023-09-07T07:31:17;7.43;;;3.83;;
14754;SDS011;7469;50.906;6.952;2023-09-07T07:33:45;4.37;;;3.77;;
14754;SDS011;7469;50.906;6.952;2023-09-07T07:36:14;7.87;;;3.87;;
14754;SDS011;7469;50.906;6.952;2023-09-07T07:38:44;5.17;;;3.67;;
14754;SDS011;7469;50.906;6.952;2023-09-07T07:41:12;7.80;;;3.70;;
14754;SDS011;7469;50.906;6.952;2023-09-07T07:43:40;5.47;;;3.70;;
14754;SDS011;7469;50.906;6.952;2023-09-07T07:46:08;5.17;;;3.77;;
14754;SDS011;7469;50.906;6.952;2023-09-07T07:48:36;4.87;;;3.57;;
14754;SDS011;7469;50.906;6.952;2023-09-07T07:51:04;5.10;;;3.43;;
14754;SDS011;7469;50.906;6.952;2023-09-07T07:53:37;6.60;;;3.80;;
14754;SDS011;7469;50.906;6.952;2023-09-07T07:56:06;7.43;;;3.63;;
14754;SDS011;7469;50.906;6.952;2023-09-07T07:58:42;5.83;;;3.93;;
14754;SDS011;7469;50.906;6.952;2023-09-07T08:01:13;4.00;;;3.50;;
14754;SDS011;7469;50.906;6.952;2023-09-07T08:03:42;9.67;;;3.77;;
14754;SDS011;7469;50.906;6.952;2023-09-07T08:06:10;4.27;;;3.50;;
14754;SDS011;7469;50.906;6.952;2023-09-07T08:08:39;7.10;;;4.00;;
14754;SDS011;7469;50.906;6.952;2023-09-07T08:11:08;7.53;;;3.50;;
14754;SDS011;7469;50.906;6.952;2023-09-07T08:13:36;6.30;;;3.63;;
14754;SDS011;7469;50.906;6.952;2023-09-07T08:16:04;4.23;;;3.83;;
14754;SDS011;7469;50.906;6.952;2023-09-07T08:18:33;4.27;;;3.50;;
14754;SDS011;7469;50.906;6.952;2023-09-07T08:21:02;7.33;;;3.70;;
14754;SDS011;7469;50.906;6.952;2023-09-07T08:23:30;7.87;;;4.00;;
14754;SDS011;7469;50.906;6.952;2023-09-07T08:25:58;7.90;;;4.17;;
14754;SDS011;7469;50.906;6.952;2023-09-07T08:28:27;5.77;;;3.73;;
14754;SDS011;7469;50.906;6.952;2023-09-07T08:30:56;8.13;;;3.80;;
14754;SDS011;7469;50.906;6.952;2023-09-07T08:33:25;7.53;;;3.97;;
14754;SDS011;7469;50.906;6.952;2023-09-07T08:35:56;7.67;;;4.13;;
14754;SDS011;7469;50.906;6.952;2023-09-07T08:38:26;4.80;;;3.77;;
14754;SDS011;7469;50.906;6.952;2023-09-07T08:41:00;4.30;;;3.83;;
14754;SDS011;7469;50.906;6.952;2023-09-07T08:43:33;4.70;;;3.80;;
14754;SDS011;7469;50.906;6.952;2023-09-07T08:46:13;3.83;;;3.43;;
14754;SDS011;7469;50.906;6.952;2023-09-07T08:48:46;7.37;;;3.80;;
14754;SDS011;7469;50.906;6.952;2023-09-07T08:51:16;4.30;;;3.43;;
14754;SDS011;7469;50.906;6.952;2023-09-07T08:53:46;6.67;;;3.33;;
14754;SDS011;7469;50.906;6.952;2023-09-07T08:56:15;7.73;;;3.60;;
14754;SDS011;7469;50.906;6.952;2023-09-07T08:58:47;7.47;;;3.37;;
14754;SDS011;7469;50.906;6.952;2023-09-07T09:01:15;9.30;;;3.63;;
14754;SDS011;7469;50.906;6.952;2023-09-07T09:03:43;6.17;;;3.63;;
14754;SDS011;7469;50.906;6.952;2023-09-07T09:06:13;10.43;;;3.70;;
14754;SDS011;7469;50.906;6.952;2023-09-07T09:08:44;8.70;;;3.73;;
14754;SDS011;7469;50.906;6.952;2023-09-07T09:11:15;6.37;;;4.00;;
14754;SDS011;7469;50.906;6.952;2023-09-07T09:13:44;4.87;;;3.47;;
14754;SDS011;7469;50.906;6.952;2023-09-07T09:16:14;6.63;;;3.20;;
14754;SDS011;7469;50.906;6.952;2023-09-07T09:18:47;7.03;;;3.60;;
14754;SDS011;7469;50.906;6.952;2023-09-07T09:21:16;9.10;;;3.50;;
14754;SDS011;7469;50.906;6.952;2023-09-07T09:23:43;7.37;;;3.57;;
14754;SDS011;7469;50.906;6.952;2023-09-07T09:26:12;7.53;;;3.70;;
14754;SDS011;7469;50.906;6.952;2023-09-07T09:28:39;6.37;;;4.10;;
14754;SDS011;7469;50.906;6.952;2023-09-07T09:31:07;7.50;;;3.43;;
14754;SDS011;7469;50.906;6.952;2023-09-07T09:33:40;5.77;;;3.40;;
14754;SDS011;7469;50.906;6.952;2023-09-07T09:36:09;7.03;;;3.23;;
14754;SDS011;7469;50.906;6.952;2023-09-07T09:38:36;8.90;;;3.80;;
14754;SDS011;7469;50.906;6.952;2023-09-07T09:41:05;5.20;;;3.40;;
14754;SDS011;7469;50.906;6.952;2023-09-07T09:43:35;4.40;;;3.57;;
14754;SDS011;7469;50.906;6.952;2023-09-07T09:46:03;4.23;;;3.67;;
14754;SDS011;7469;50.906;6.952;2023-09-07T09:48:34;5.80;;;3.23;;
14754;SDS011;7469;50.906;6.952;2023-09-07T09:51:05;6.70;;;3.53;;
14754;SDS011;7469;50.906;6.952;2023-09-07T09:53:35;3.93;;;3.43;;
14754;SDS011;7469;50.906;6.952;2023-09-07T09:56:03;5.83;;;3.77;;
14754;SDS011;7469;50.906;6.952;2023-09-07T09:58:31;3.63;;;3.33;;
14754;SDS011;7469;50.906;6.952;2023-09-07T10:01:00;5.63;;;3.40;;
14754;SDS011;7469;50.906;6.952;2023-09-07T10:03:32;4.83;;;3.37;;
14754;SDS011;7469;50.906;6.952;2023-09-07T10:06:09;4.40;;;3.27;;
14754;SDS011;7469;50.906;6.952;2023-09-07T10:08:38;7.10;;;3.20;;
14754;SDS011;7469;50.906;6.952;2023-09-07T10:11:07;9.77;;;3.17;;
14754;SDS011;7469;50.906;6.952;2023-09-07T10:13:36;3.87;;;3.50;;
14754;SDS011;7469;50.906;6.952;2023-09-07T10:16:05;3.73;;;3.33;;
14754;SDS011;7469;50.906;6.952;2023-09-07T10:18:35;5.30;;;3.20;;
14754;SDS011;7469;50.906;6.952;2023-09-07T10:21:05;5.43;;;2.97;;
14754;SDS011;7469;50.906;6.952;2023-09-07T10:23:38;8.93;;;3.73;;
14754;SDS011;7469;50.906;6.952;2023-09-07T10:26:10;4.83;;;3.10;;
14754;SDS011;7469;50.906;6.952;2023-09-07T10:28:40;4.30;;;3.63;;
14754;SDS011;7469;50.906;6.952;2023-09-07T10:31:12;7.27;;;3.33;;
14754;SDS011;7469;50.906;6.952;2023-09-07T10:33:41;7.60;;;3.47;;
14754;SDS011;7469;50.906;6.952;2023-09-07T10:36:19;3.60;;;3.30;;
14754;SDS011;7469;50.906;6.952;2023-09-07T10:38:49;6.87;;;3.40;;
14754;SDS011;7469;50.906;6.952;2023-09-07T10:41:19;4.07;;;3.60;;
14754;SDS011;7469;50.906;6.952;2023-09-07T10:43:48;3.97;;;3.33;;
14754;SDS011;7469;50.906;6.952;2023-09-07T10:46:18;6.80;;;3.20;;
14754;SDS011;7469;50.906;6.952;2023-09-07T10:48:48;5.50;;;3.60;;
14754;SDS011;7469;50.906;6.952;2023-09-07T10:51:17;7.43;;;3.73;;
14754;SDS011;7469;50.906;6.952;2023-09-07T10:53:46;5.20;;;2.97;;
14754;SDS011;7469;50.906;6.952;2023-09-07T10:56:15;3.40;;;3.10;;
14754;SDS011;7469;50.906;6.952;2023-09-07T10:58:43;5.27;;;3.17;;
14754;SDS011;7469;50.906;6.952;2023-09-07T11:01:11;7.63;;;3.17;;
14754;SDS011;7469;50.906;6.952;2023-09-07T11:03:43;4.20;;;3.17;;
14754;SDS011;7469;50.906;6.952;2023-09-07T11:06:12;3.70;;;3.23;;
14754;SDS011;7469;50.906;6.952;2023-09-07T11:08:44;4.07;;;3.13;;
14754;SDS011;7469;50.906;6.952;2023-09-07T11:11:12;3.50;;;2.83;;
14754;SDS011;7469;50.906;6.952;2023-09-07T11:13:41;5.40;;;3.33;;
14754;SDS011;7469;50.906;6.952;2023-09-07T11:16:10;3.67;;;3.37;;
14754;SDS011;7469;50.906;6.952;2023-09-07T11:18:38;4.37;;;3.23;;
14754;SDS011;7469;50.906;6.952;2023-09-07T11:21:07;3.37;;;3.07;;
14754;SDS011;7469;50.906;6.952;2023-09-07T11:23:37;5.97;;;3.20;;
14754;SDS011;7469;50.906;6.952;2023-09-07T11:26:05;4.17;;;3.07;;
14754;SDS011;7469;50.906;6.952;2023-09-07T11:28:35;3.33;;;3.03;;
14754;SDS011;7469;50.906;6.952;2023-09-07T11:31:06;5.23;;;3.10;;
14754;SDS011;7469;50.906;6.952;2023-09-07T11:33:35;3.60;;;3.07;;
14754;SDS011;7469;50.906;6.952;2023-09-07T11:36:05;4.50;;;3.20;;
14754;SDS011;7469;50.906;6.952;2023-09-07T11:38:35;4.43;;;2.93;;
14754;SDS011;7469;50.906;6.952;2023-09-07T11:41:04;4.17;;;3.00;;
14754;SDS011;7469;50.906;6.952;2023-09-07T11:43:32;3.73;;;2.83;;
14754;SDS011;7469;50.906;6.952;2023-09-07T11:46:01;4.40;;;3.30;;
14754;SDS011;7469;50.906;6.952;2023-09-07T11:48:31;4.47;;;3.17;;
14754;SDS011;7469;50.906;6.952;2023-09-07T11:51:00;5.73;;;3.33;;
14754;SDS011;7469;50.906;6.952;2023-09-07T11:53:28;4.40;;;3.83;;
14754;SDS011;7469;50.906;6.952;2023-09-07T11:55:57;7.00;;;2.90;;
14754;SDS011;7469;50.906;6.952;2023-09-07T11:58:25;4.97;;;3.03;;
14754;SDS011;7469;50.906;6.952;2023-09-07T12:00:56;3.80;;;3.40;;
14754;SDS011;7469;50.906;6.952;2023-09-07T12:03:24;4.00;;;3.13;;
14754;SDS011;7469;50.906;6.952;2023-09-07T12:05:53;4.40;;;3.43;;
14754;SDS011;7469;50.906;6.952;2023-09-07T12:08:21;4.50;;;3.20;;
14754;SDS011;7469;50.906;6.952;2023-09-07T12:10:50;3.70;;;3.20;;
14754;SDS011;7469;50.906;6.952;2023-09-07T12:13:17;3.73;;;3.20;;
14754;SDS011;7469;50.906;6.952;2023-09-07T12:15:45;4.10;;;3.53;;
14754;SDS011;7469;50.906;6.952;2023-09-07T12:18:14;5.30;;;3.67;;
14754;SDS011;7469;50.906;6.952;2023-09-07T12:20:42;7.57;;;3.60;;
14754;SDS011;7469;50.906;6.952;2023-09-07T12:23:12;4.03;;;3.63;;
14754;SDS011;7469;50.906;6.952;2023-09-07T12:25:40;3.83;;;3.43;;
14754;SDS011;7469;50.906;6.952;2023-09-07T12:28:08;9.60;;;3.70;;
14754;SDS011;7469;50.906;6.952;2023-09-07T12:30:36;4.43;;;2.90;;
14754;SDS011;7469;50.906;6.952;2023-09-07T12:33:04;4.57;;;3.07;;
14754;SDS011;7469;50.906;6.952;2023-09-07T12:35:32;3.87;;;2.97;;
14754;SDS011;7469;50.906;6.952;2023-09-07T12:38:00;4.17;;;3.40;;
14754;SDS011;7469;50.906;6.952;2023-09-07T12:40:31;3.37;;;3.07;;
14754;SDS011;7469;50.906;6.952;2023-09-07T12:43:01;3.53;;;3.20;;
14754;SDS011;7469;50.906;6.952;2023-09-07T12:45:30;5.30;;;3.07;;
14754;SDS011;7469;50.906;6.952;2023-09-07T12:47:58;4.60;;;3.43;;
14754;SDS011;7469;50.906;6.952;2023-09-07T12:50:27;3.30;;;3.00;;
14754;SDS011;7469;50.906;6.952;2023-09-07T12:52:55;7.03;;;3.30;;
14754;SDS011;7469;50.906;6.952;2023-09-07T12:55:24;4.27;;;2.90;;
14754;SDS011;7469;50.906;6.952;2023-09-07T12:57:53;6.10;;;3.10;;
14754;SDS011;7469;50.906;6.952;2023-09-07T13:00:21;5.03;;;3.17;;
14754;SDS011;7469;50.906;6.952;2023-09-07T13:02:49;3.63;;;3.23;;
14754;SDS011;7469;50.906;6.952;2023-09-07T13:05:17;3.43;;;3.13;;
14754;SDS011;7469;50.906;6.952;2023-09-07T13:07:45;3.47;;;3.10;;
14754;SDS011;7469;50.906;6.952;2023-09-07T13:10:14;3.50;;;3.17;;
14754;SDS011;7469;50.906;6.952;2023-09-07T13:12:42;6.13;;;3.17;;
14754;SDS011;7469;50.906;6.952;2023-09-07T13:15:11;4.90;;;3.30;;
14754;SDS011;7469;50.906;6.952;2023-09-07T13:17:39;5.17;;;3.17;;
14754;SDS011;7469;50.906;6.952;2023-09-07T13:20:08;4.37;;;3.07;;
14754;SDS011;7469;50.906;6.952;2023-09-07T13:22:36;3.37;;;3.07;;
14754;SDS011;7469;50.906;6.952;2023-09-07T13:25:08;3.77;;;3.47;;
14754;SDS011;7469;50.906;6.952;2023-09-07T13:27:36;3.47;;;3.17;;
14754;SDS011;7469;50.906;6.952;2023-09-07T13:30:04;4.80;;;3.20;;
14754;SDS011;7469;50.906;6.952;2023-09-07T13:32:35;4.27;;;2.90;;
14754;SDS011;7469;50.906;6.952;2023-09-07T13:35:03;3.50;;;3.23;;
14754;SDS011;7469;50.906;6.952;2023-09-07T13:37:32;4.03;;;2.90;;
14754;SDS011;7469;50.906;6.952;2023-09-07T13:40:02;4.63;;;3.10;;
14754;SDS011;7469;50.906;6.952;2023-09-07T13:42:31;4.83;;;3.33;;
14754;SDS011;7469;50.906;6.952;2023-09-07T13:44:59;4.87;;;3.03;;
14754;SDS011;7469;50.906;6.952;2023-09-07T13:47:26;7.77;;;3.33;;
14754;SDS011;7469;50.906;6.952;2023-09-07T13:49:56;3.53;;;2.90;;
14754;SDS011;7469;50.906;6.952;2023-09-07T13:52:24;3.40;;;3.10;;
14754;SDS011;7469;50.906;6.952;2023-09-07T13:54:52;5.03;;;3.17;;
14754;SDS011;7469;50.906;6.952;2023-09-07T13:57:20;5.27;;;3.50;;
14754;SDS011;7469;50.906;6.952;2023-09-07T13:59:50;5.30;;;3.33;;
14754;SDS011;7469;50.906;6.952;2023-09-07T14:02:18;6.57;;;3.20;;
14754;SDS011;7469;50.906;6.952;2023-09-07T14:04:46;4.13;;;2.90;;
14754;SDS011;7469;50.906;6.952;2023-09-07T14:07:17;4.77;;;3.20;;
14754;SDS011;7469;50.906;6.952;2023-09-07T14:09:45;5.80;;;3.30;;
14754;SDS011;7469;50.906;6.952;2023-09-07T14:12:13;3.33;;;2.83;;
14754;SDS011;7469;50.906;6.952;2023-09-07T14:14:41;3.03;;;2.83;;
14754;SDS011;7469;50.906;6.952;2023-09-07T14:17:09;4.70;;;3.00;;
14754;SDS011;7469;50.906;6.952;2023-09-07T14:19:37;5.83;;;3.13;;
14754;SDS011;7469;50.906;6.952;2023-09-07T14:22:05;3.20;;;2.70;;
14754;SDS011;7469;50.906;6.952;2023-09-07T14:24:34;3.30;;;3.00;;
14754;SDS011;7469;50.906;6.952;2023-09-07T14:27:02;6.10;;;3.10;;
14754;SDS011;7469;50.906;6.952;2023-09-07T14:29:31;4.40;;;3.27;;
14754;SDS011;7469;50.906;6.952;2023-09-07T14:31:59;4.07;;;3.20;;
14754;SDS011;7469;50.906;6.952;2023-09-07T14:34:27;3.27;;;3.00;;
14754;SDS011;7469;50.906;6.952;2023-09-07T14:36:55;3.90;;;2.80;;
14754;SDS011;7469;50.906;6.952;2023-09-07T14:39:25;3.77;;;3.20;;
14754;SDS011;7469;50.906;6.952;2023-09-07T14:41:54;3.80;;;3.40;;
14754;SDS011;7469;50.906;6.952;2023-09-07T14:44:22;5.70;;;3.30;;
14754;SDS011;7469;50.906;6.952;2023-09-07T14:46:50;5.00;;;3.00;;
14754;SDS011;7469;50.906;6.952;2023-09-07T14:49:18;3.60;;;3.30;;
14754;SDS011;7469;50.906;6.952;2023-09-07T14:51:47;4.47;;;3.57;;
14754;SDS011;7469;50.906;6.952;2023-09-07T14:54:15;6.33;;;2.90;;
14754;SDS011;7469;50.906;6.952;2023-09-07T14:56:43;4.53;;;3.20;;
14754;SDS011;7469;50.906;6.952;2023-09-07T14:59:12;4.47;;;3.53;;
14754;SDS011;7469;50.906;6.952;2023-09-07T15:01:40;6.33;;;3.20;;
14754;SDS011;7469;50.906;6.952;2023-09-07T15:04:16;5.40;;;3.50;;
14754;SDS011;7469;50.906;6.952;2023-09-07T15:06:44;4.17;;;3.77;;
14754;SDS011;7469;50.906;6.952;2023-09-07T15:09:11;4.97;;;3.60;;
14754;SDS011;7469;50.906;6.952;2023-09-07T15:11:39;3.60;;;3.30;;
14754;SDS011;7469;50.906;6.952;2023-09-07T15:14:09;5.40;;;3.33;;